createdAt,value
2023-03-29T00:00:07.057Z,0
2023-03-29T00:01:01.983Z,0
2023-03-29T00:02:02.306Z,0
2023-03-29T00:03:01.835Z,0
2023-03-29T00:04:02.830Z,0
2023-03-29T00:05:03.383Z,0
2023-03-29T00:06:02.184Z,0
2023-03-29T00:07:01.631Z,0
2023-03-29T00:08:02.133Z,0
2023-03-29T00:09:03.301Z,0
2023-03-29T00:10:02.115Z,0
2023-03-29T00:11:01.777Z,0
2023-03-29T00:12:02.138Z,0
2023-03-29T00:13:01.538Z,0
2023-03-29T00:14:02.034Z,0
2023-03-29T00:15:01.554Z,0
2023-03-29T00:16:02.034Z,0
2023-03-29T00:17:01.524Z,0
2023-03-29T00:18:03.687Z,0
2023-03-29T00:19:01.507Z,0
2023-03-29T00:20:03.624Z,0
2023-03-29T00:21:01.605Z,0
2023-03-29T00:22:03.566Z,0
2023-03-29T00:23:01.402Z,0
2023-03-29T00:24:01.891Z,0
2023-03-29T00:25:02.998Z,0
2023-03-29T00:26:01.798Z,0
2023-03-29T00:27:02.273Z,0
2023-03-29T00:28:01.811Z,0
2023-03-29T00:29:02.264Z,0
2023-03-29T00:30:01.786Z,0
2023-03-29T00:31:02.501Z,0
2023-03-29T00:32:01.710Z,0
2023-03-29T00:33:02.285Z,0
2023-03-29T00:34:01.717Z,0
2023-03-29T00:35:02.197Z,0
2023-03-29T00:36:01.777Z,0
2023-03-29T00:37:02.185Z,0
2023-03-29T00:38:01.642Z,0
2023-03-29T00:39:03.827Z,0
2023-03-29T00:40:01.639Z,0
2023-03-29T00:41:02.253Z,0
2023-03-29T00:42:01.558Z,0
2023-03-29T00:43:02.108Z,0
2023-03-29T00:44:01.591Z,0
2023-03-29T00:45:02.067Z,0
2023-03-29T00:46:01.585Z,0
2023-03-29T00:47:02.043Z,0
2023-03-29T00:48:01.572Z,0
2023-03-29T00:49:01.955Z,0
2023-03-29T00:50:01.514Z,0
2023-03-29T00:51:03.876Z,0
2023-03-29T00:52:03.067Z,0
2023-03-29T00:53:03.559Z,0
2023-03-29T00:54:01.373Z,0
2023-03-29T00:55:01.961Z,0
2023-03-29T00:56:03.011Z,0
2023-03-29T00:57:01.824Z,0
2023-03-29T00:58:02.263Z,0
2023-03-29T00:59:03.393Z,0
2023-03-29T01:00:03.870Z,0
2023-03-29T01:01:03.619Z,0
2023-03-29T01:02:04.043Z,0
2023-03-29T01:03:03.449Z,0
2023-03-29T01:04:02.309Z,0
2023-03-29T01:05:01.617Z,0
2023-03-29T01:06:02.118Z,0
2023-03-29T01:07:01.680Z,0
2023-03-29T01:08:02.109Z,0
2023-03-29T01:09:02.984Z,0
2023-03-29T01:10:01.731Z,0
2023-03-29T01:11:02.409Z,0
2023-03-29T01:12:01.736Z,0
2023-03-29T01:13:02.199Z,0
2023-03-29T01:14:01.631Z,0
2023-03-29T01:15:02.129Z,0
2023-03-29T01:16:01.582Z,0
2023-03-29T01:17:02.051Z,0
2023-03-29T01:18:01.600Z,0
2023-03-29T01:19:02.038Z,0
2023-03-29T01:20:01.524Z,0
2023-03-29T01:21:02.042Z,0
2023-03-29T01:22:01.590Z,0
2023-03-29T01:23:01.947Z,0
2023-03-29T01:24:01.397Z,0
2023-03-29T01:25:01.873Z,0
2023-03-29T01:26:01.392Z,0
2023-03-29T01:27:01.895Z,0
2023-03-29T01:28:01.318Z,0
2023-03-29T01:29:02.015Z,0
2023-03-29T01:30:02.287Z,0
2023-03-29T01:31:02.008Z,0
2023-03-29T01:32:02.340Z,0
2023-03-29T01:33:01.786Z,0
2023-03-29T01:34:02.178Z,0
2023-03-29T01:35:01.716Z,0
2023-03-29T01:36:03.916Z,0
2023-03-29T01:37:01.657Z,0
2023-03-29T01:38:02.145Z,0
2023-03-29T01:39:01.633Z,0
2023-03-29T01:40:02.124Z,0
2023-03-29T01:41:01.719Z,0
2023-03-29T01:42:02.142Z,0
2023-03-29T01:43:03.229Z,0
2023-03-29T01:44:02.036Z,0
2023-03-29T01:45:03.239Z,0
2023-03-29T01:46:02.065Z,0
2023-03-29T01:47:01.499Z,0
2023-03-29T01:48:02.137Z,0
2023-03-29T01:49:03.148Z,0
2023-03-29T01:50:03.633Z,0
2023-03-29T01:51:01.732Z,0
2023-03-29T01:52:01.970Z,0
2023-03-29T01:53:03.079Z,0
2023-03-29T01:54:01.882Z,0
2023-03-29T01:55:03.259Z,0
2023-03-29T01:56:01.869Z,0
2023-03-29T01:57:01.417Z,0
2023-03-29T01:58:01.826Z,0
2023-03-29T01:59:04.101Z,0
2023-03-29T02:00:01.843Z,0
2023-03-29T02:01:04.272Z,0
2023-03-29T02:02:01.716Z,0
2023-03-29T02:03:02.283Z,0
2023-03-29T02:04:01.715Z,0
2023-03-29T02:05:02.220Z,0
2023-03-29T02:06:01.655Z,0
2023-03-29T02:07:02.192Z,0
2023-03-29T02:08:01.656Z,0
2023-03-29T02:09:02.109Z,0
2023-03-29T02:10:01.662Z,0
2023-03-29T02:11:02.417Z,0
2023-03-29T02:12:01.552Z,0
2023-03-29T02:13:02.030Z,0
2023-03-29T02:14:01.559Z,0
2023-03-29T02:15:02.069Z,0
2023-03-29T02:16:03.256Z,0
2023-03-29T02:17:02.191Z,0
2023-03-29T02:18:03.321Z,0
2023-03-29T02:19:02.110Z,0
2023-03-29T02:20:01.685Z,0
2023-03-29T02:21:04.068Z,0
2023-03-29T02:22:01.542Z,0
2023-03-29T02:23:02.045Z,0
2023-03-29T02:24:01.473Z,0
2023-03-29T02:25:02.031Z,0
2023-03-29T02:26:01.459Z,0
2023-03-29T02:27:01.977Z,0
2023-03-29T02:28:03.072Z,0
2023-03-29T02:29:01.931Z,0
2023-03-29T02:30:01.403Z,0
2023-03-29T02:31:02.126Z,0
2023-03-29T02:32:03.027Z,0
2023-03-29T02:33:01.968Z,0
2023-03-29T02:34:03.954Z,0
2023-03-29T02:35:01.718Z,0
2023-03-29T02:36:02.262Z,0
2023-03-29T02:37:03.395Z,0
2023-03-29T02:38:02.185Z,0
2023-03-29T02:39:01.629Z,0
2023-03-29T02:40:02.113Z,0
2023-03-29T02:41:01.718Z,0
2023-03-29T02:42:02.030Z,0
2023-03-29T02:43:03.168Z,0
2023-03-29T02:44:01.956Z,0
2023-03-29T02:45:01.479Z,0
2023-03-29T02:46:01.959Z,0
2023-03-29T02:47:01.434Z,0
2023-03-29T02:48:02.020Z,0
2023-03-29T02:49:03.072Z,0
2023-03-29T02:50:01.876Z,0
2023-03-29T02:51:02.638Z,0
2023-03-29T02:52:01.795Z,0
2023-03-29T02:53:02.283Z,0
2023-03-29T02:54:03.411Z,0
2023-03-29T02:55:03.880Z,0
2023-03-29T02:56:01.731Z,0
2023-03-29T02:57:02.215Z,0
2023-03-29T02:58:01.714Z,0
2023-03-29T02:59:02.194Z,0
2023-03-29T03:00:01.634Z,0
2023-03-29T03:01:02.346Z,0
2023-03-29T03:02:01.688Z,0
2023-03-29T03:03:02.435Z,0
2023-03-29T03:04:01.698Z,0
2023-03-29T03:05:02.123Z,0
2023-03-29T03:06:01.624Z,0
2023-03-29T03:07:02.137Z,0
2023-03-29T03:08:03.225Z,0
2023-03-29T03:09:03.707Z,0
2023-03-29T03:10:01.569Z,0
2023-03-29T03:11:03.984Z,0
2023-03-29T03:12:01.583Z,0
2023-03-29T03:13:02.092Z,0
2023-03-29T03:14:01.488Z,0
2023-03-29T03:15:01.963Z,0
2023-03-29T03:16:01.536Z,0
2023-03-29T03:17:04.528Z,0
2023-03-29T03:18:01.489Z,0
2023-03-29T03:19:01.975Z,0
2023-03-29T03:20:01.394Z,0
2023-03-29T03:21:02.370Z,0
2023-03-29T03:22:01.408Z,0
2023-03-29T03:23:01.873Z,0
2023-03-29T03:24:01.436Z,0
2023-03-29T03:25:02.124Z,0
2023-03-29T03:26:01.649Z,0
2023-03-29T03:27:02.128Z,0
2023-03-29T03:28:01.556Z,0
2023-03-29T03:29:02.060Z,0
2023-03-29T03:30:01.549Z,0
2023-03-29T03:31:02.163Z,0
2023-03-29T03:32:01.511Z,0
2023-03-29T03:33:02.043Z,0
2023-03-29T03:34:01.461Z,0
2023-03-29T03:35:01.955Z,0
2023-03-29T03:36:03.176Z,0
2023-03-29T03:37:01.982Z,0
2023-03-29T03:38:01.420Z,0
2023-03-29T03:39:01.884Z,0
2023-03-29T03:41:02.084Z,0
2023-03-29T03:42:02.263Z,0
2023-03-29T03:43:01.738Z,0
2023-03-29T03:44:03.871Z,0
2023-03-29T03:45:03.302Z,0
2023-03-29T03:46:03.958Z,0
2023-03-29T03:47:01.624Z,0
2023-03-29T03:48:02.210Z,0
2023-03-29T03:49:01.545Z,0
2023-03-29T03:50:02.033Z,0
2023-03-29T03:51:03.511Z,0
2023-03-29T03:52:02.033Z,0
2023-03-29T03:53:01.517Z,0
2023-03-29T03:54:02.013Z,0
2023-03-29T03:55:01.466Z,0
2023-03-29T03:56:01.936Z,0
2023-03-29T03:57:03.095Z,0
2023-03-29T03:58:01.889Z,0
2023-03-29T03:59:01.425Z,0
2023-03-29T04:00:01.867Z,0
2023-03-29T04:01:01.452Z,0
2023-03-29T04:02:03.485Z,0
2023-03-29T04:03:04.213Z,0
2023-03-29T04:04:01.956Z,0
2023-03-29T04:05:02.285Z,0
2023-03-29T04:06:01.707Z,0
2023-03-29T04:07:02.254Z,0
2023-03-29T04:08:01.722Z,0
2023-03-29T04:09:02.188Z,0
2023-03-29T04:10:01.676Z,0
2023-03-29T04:11:02.269Z,0
2023-03-29T04:12:01.653Z,0
2023-03-29T04:13:02.116Z,0
2023-03-29T04:14:03.225Z,0
2023-03-29T04:15:02.044Z,0
2023-03-29T04:16:01.977Z,0
2023-03-29T04:17:02.032Z,0
2023-03-29T04:18:01.523Z,0
2023-03-29T04:19:02.030Z,0
2023-03-29T04:20:01.513Z,0
2023-03-29T04:21:03.829Z,0
2023-03-29T04:22:03.066Z,0
2023-03-29T04:23:01.864Z,0
2023-03-29T04:24:01.306Z,0
2023-03-29T04:25:01.874Z,0
2023-03-29T04:26:02.288Z,0
2023-03-29T04:27:01.801Z,0
2023-03-29T04:28:02.285Z,0
2023-03-29T04:29:03.406Z,0
2023-03-29T04:30:02.222Z,0
2023-03-29T04:31:01.969Z,0
2023-03-29T04:32:02.195Z,0
2023-03-29T04:33:02.042Z,0
2023-03-29T04:34:03.061Z,0
2023-03-29T04:35:01.879Z,0
2023-03-29T04:36:01.449Z,0
2023-03-29T04:37:01.880Z,0
2023-03-29T04:38:01.314Z,0
2023-03-29T04:39:03.450Z,0
2023-03-29T04:40:03.968Z,0
2023-03-29T04:41:03.657Z,0
2023-03-29T04:42:02.200Z,0
2023-03-29T04:43:01.719Z,0
2023-03-29T04:44:02.194Z,0
2023-03-29T04:45:01.692Z,0
2023-03-29T04:46:02.178Z,0
2023-03-29T04:47:01.632Z,0
2023-03-29T04:48:02.203Z,0
2023-03-29T04:49:01.645Z,0
2023-03-29T04:50:02.123Z,0
2023-03-29T04:51:03.382Z,0
2023-03-29T04:52:03.725Z,0
2023-03-29T04:53:01.611Z,0
2023-03-29T04:54:02.035Z,0
2023-03-29T04:55:01.580Z,0
2023-03-29T04:56:03.756Z,0
2023-03-29T04:57:01.607Z,0
2023-03-29T04:58:02.038Z,0
2023-03-29T04:59:01.575Z,0
2023-03-29T05:00:02.093Z,0
2023-03-29T05:01:03.335Z,0
2023-03-29T05:02:02.107Z,0
2023-03-29T05:03:01.488Z,0
2023-03-29T05:04:02.211Z,0
2023-03-29T05:05:01.769Z,0
2023-03-29T05:06:02.273Z,0
2023-03-29T05:07:01.721Z,0
2023-03-29T05:08:02.301Z,0
2023-03-29T05:09:01.707Z,0
2023-03-29T05:10:02.273Z,0
2023-03-29T05:11:02.020Z,0
2023-03-29T05:12:02.361Z,0
2023-03-29T05:13:01.810Z,0
2023-03-29T05:14:02.283Z,0
2023-03-29T05:15:01.908Z,0
2023-03-29T05:16:02.324Z,0
2023-03-29T05:17:01.806Z,0
2023-03-29T05:18:01.379Z,0
2023-03-29T05:19:03.629Z,0
2023-03-29T05:20:01.463Z,0
2023-03-29T05:21:02.189Z,0
2023-03-29T05:22:01.466Z,0
2023-03-29T05:23:01.997Z,0
2023-03-29T05:24:01.467Z,0
2023-03-29T05:25:02.049Z,0
2023-03-29T05:26:01.465Z,0
2023-03-29T05:27:02.055Z,0
2023-03-29T05:28:01.580Z,0
2023-03-29T05:29:02.139Z,0
2023-03-29T05:30:01.641Z,0
2023-03-29T05:31:02.484Z,0
2023-03-29T05:32:01.781Z,0
2023-03-29T05:33:02.234Z,0
2023-03-29T05:34:01.699Z,0
2023-03-29T05:35:02.202Z,0
2023-03-29T05:36:01.749Z,0
2023-03-29T05:37:01.337Z,0
2023-03-29T05:38:03.544Z,0
2023-03-29T05:39:01.374Z,0
2023-03-29T05:40:06.107Z,0
2023-03-29T05:41:01.571Z,0
2023-03-29T05:42:03.553Z,0
2023-03-29T05:43:03.008Z,0
2023-03-29T05:44:01.872Z,0
2023-03-29T05:46:01.876Z,0
2023-03-29T05:47:02.274Z,0
2023-03-29T05:48:01.931Z,0
2023-03-29T05:49:03.957Z,0
2023-03-29T05:50:01.715Z,0
2023-03-29T05:51:02.387Z,0
2023-03-29T05:52:01.622Z,0
2023-03-29T05:53:02.113Z,0
2023-03-29T05:54:01.637Z,0
2023-03-29T05:55:03.839Z,0
2023-03-29T05:56:01.541Z,0
2023-03-29T05:57:03.746Z,0
2023-03-29T05:58:01.536Z,0
2023-03-29T05:59:03.710Z,0
2023-03-29T06:00:01.466Z,0
2023-03-29T06:01:02.169Z,0
2023-03-29T06:02:03.172Z,0
2023-03-29T06:03:13.658Z,0
2023-03-29T06:04:01.440Z,0
2023-03-29T06:05:01.923Z,0
2023-03-29T06:06:01.333Z,0
2023-03-29T06:07:01.799Z,0
2023-03-29T06:08:02.354Z,0
2023-03-29T06:09:01.792Z,0
2023-03-29T06:10:02.273Z,0
2023-03-29T06:11:04.869Z,0
2023-03-29T06:12:02.275Z,0
2023-03-29T06:13:01.718Z,0
2023-03-29T06:14:02.191Z,0
2023-03-29T06:15:01.705Z,0
2023-03-29T06:16:02.124Z,0
2023-03-29T06:17:03.375Z,0
2023-03-29T06:18:02.156Z,0
2023-03-29T06:19:01.551Z,0
2023-03-29T06:20:03.705Z,0
2023-03-29T06:21:01.751Z,0
2023-03-29T06:22:02.037Z,0
2023-03-29T06:23:01.481Z,0
2023-03-29T06:24:01.949Z,0
2023-03-29T06:25:01.476Z,0
2023-03-29T06:26:01.964Z,0
2023-03-29T06:27:01.508Z,0
2023-03-29T06:28:01.957Z,0
2023-03-29T06:29:01.393Z,0
2023-03-29T06:30:01.871Z,0
2023-03-29T06:31:01.642Z,0
2023-03-29T06:32:01.914Z,0
2023-03-29T06:33:01.391Z,0
2023-03-29T06:34:01.796Z,0
2023-03-29T06:35:02.287Z,0
2023-03-29T06:36:01.870Z,0
2023-03-29T06:37:02.303Z,0
2023-03-29T06:38:01.703Z,0
2023-03-29T06:39:02.266Z,0
2023-03-29T06:40:01.710Z,0
2023-03-29T06:41:02.532Z,0
2023-03-29T06:42:09.994Z,0
2023-03-29T06:43:02.192Z,0
2023-03-29T06:44:03.369Z,0
2023-03-29T06:45:02.111Z,0
2023-03-29T06:46:01.564Z,0
2023-03-29T06:47:02.060Z,0
2023-03-29T06:48:01.580Z,0
2023-03-29T06:49:02.297Z,0
2023-03-29T06:50:02.941Z,0
2023-03-29T06:51:01.821Z,0
2023-03-29T06:52:03.907Z,0
2023-03-29T06:53:01.648Z,0
2023-03-29T06:54:02.128Z,0
2023-03-29T06:55:03.228Z,0
2023-03-29T06:56:02.048Z,0
2023-03-29T06:57:01.593Z,0
2023-03-29T06:58:03.745Z,0
2023-03-29T06:59:01.467Z,0
2023-03-29T07:00:02.046Z,0
2023-03-29T07:01:01.650Z,0
2023-03-29T07:02:03.717Z,0
2023-03-29T07:03:03.207Z,0
2023-03-29T07:04:01.980Z,0
2023-03-29T07:05:03.079Z,0
2023-03-29T07:06:01.949Z,0
2023-03-29T07:07:01.667Z,0
2023-03-29T07:08:01.886Z,0
2023-03-29T07:09:01.784Z,0
2023-03-29T07:10:01.895Z,0
2023-03-29T07:11:01.667Z,0
2023-03-29T07:12:01.872Z,0
2023-03-29T07:13:01.461Z,0
2023-03-29T07:14:01.874Z,0
2023-03-29T07:15:01.326Z,0
2023-03-29T07:16:01.927Z,0
2023-03-29T07:17:01.338Z,0
2023-03-29T07:18:01.912Z,0
2023-03-29T07:19:01.330Z,0
2023-03-29T07:20:01.824Z,0
2023-03-29T07:21:01.559Z,0
2023-03-29T07:22:01.865Z,0
2023-03-29T07:23:01.670Z,0
2023-03-29T07:24:01.871Z,0
2023-03-29T07:25:01.427Z,0
2023-03-29T07:26:01.967Z,0
2023-03-29T07:27:04.538Z,0
2023-03-29T07:28:02.147Z,0
2023-03-29T07:29:01.630Z,0
2023-03-29T07:30:02.136Z,0
2023-03-29T07:31:02.150Z,0
2023-03-29T07:32:03.878Z,0
2023-03-29T07:33:01.880Z,0
2023-03-29T07:34:02.186Z,0
2023-03-29T07:35:01.740Z,0
2023-03-29T07:36:01.446Z,0
2023-03-29T07:37:03.628Z,0
2023-03-29T07:38:01.556Z,0
2023-03-29T07:39:02.057Z,0
2023-03-29T07:40:01.582Z,0
2023-03-29T07:41:04.195Z,0
2023-03-29T07:42:01.751Z,0
2023-03-29T07:43:03.941Z,0
2023-03-29T07:44:03.337Z,0
2023-03-29T07:45:01.313Z,0
2023-03-29T07:46:03.570Z,0
2023-03-29T07:47:01.401Z,0
2023-03-29T07:48:02.029Z,0
2023-03-29T07:49:01.554Z,0
2023-03-29T07:50:02.212Z,0
2023-03-29T07:51:02.069Z,0
2023-03-29T07:52:01.325Z,0
2023-03-29T07:53:01.887Z,0
2023-03-29T07:54:01.509Z,0
2023-03-29T07:55:02.191Z,0
2023-03-29T07:56:01.973Z,0
2023-03-29T07:57:01.673Z,0
2023-03-29T07:58:01.392Z,0
2023-03-29T07:59:02.042Z,0
2023-03-29T08:00:02.001Z,0
2023-03-29T08:01:03.452Z,0
2023-03-29T08:02:02.052Z,0
2023-03-29T08:03:01.535Z,0
2023-03-29T08:04:01.990Z,0
2023-03-29T08:05:01.584Z,0
2023-03-29T08:06:01.975Z,0
2023-03-29T08:07:01.393Z,0
2023-03-29T08:08:01.885Z,0
2023-03-29T08:09:01.403Z,0
2023-03-29T08:10:01.921Z,0
2023-03-29T08:11:01.459Z,0
2023-03-29T08:12:01.771Z,0
2023-03-29T08:13:02.359Z,0
2023-03-29T08:14:01.814Z,0
2023-03-29T08:15:02.323Z,0
2023-03-29T08:16:01.789Z,0
2023-03-29T08:17:02.310Z,0
2023-03-29T08:18:01.777Z,0
2023-03-29T08:19:02.201Z,0
2023-03-29T08:20:01.719Z,0
2023-03-29T08:21:02.409Z,0
2023-03-29T08:22:01.634Z,0
2023-03-29T08:23:02.134Z,0
2023-03-29T08:24:01.628Z,0
2023-03-29T08:25:02.124Z,0
2023-03-29T08:26:01.649Z,0
2023-03-29T08:27:03.712Z,0
2023-03-29T08:28:03.223Z,0
2023-03-29T08:29:02.084Z,0
2023-03-29T08:30:01.562Z,0
2023-03-29T08:31:02.228Z,0
2023-03-29T08:32:01.510Z,0
2023-03-29T08:33:01.992Z,0
2023-03-29T08:34:03.066Z,0
2023-03-29T08:35:01.967Z,0
2023-03-29T08:36:01.405Z,0
2023-03-29T08:37:03.584Z,0
2023-03-29T08:38:01.399Z,0
2023-03-29T08:39:01.884Z,0
2023-03-29T08:40:01.311Z,0
2023-03-29T08:41:03.665Z,0
2023-03-29T08:42:02.271Z,0
2023-03-29T08:43:01.835Z,0
2023-03-29T08:44:02.281Z,0
2023-03-29T08:45:01.721Z,0
2023-03-29T08:46:02.217Z,0
2023-03-29T08:47:01.826Z,0
2023-03-29T08:48:03.931Z,0
2023-03-29T08:49:01.763Z,0
2023-03-29T08:50:02.193Z,0
2023-03-29T08:51:01.935Z,0
2023-03-29T08:52:02.121Z,0
2023-03-29T08:53:01.675Z,0
2023-03-29T08:54:02.144Z,0
2023-03-29T08:55:01.557Z,0
2023-03-29T08:56:02.115Z,0
2023-03-29T08:57:01.624Z,0
2023-03-29T08:58:02.035Z,0
2023-03-29T08:59:01.539Z,0
2023-03-29T09:00:02.018Z,0
2023-03-29T09:01:01.723Z,0
2023-03-29T09:02:02.059Z,0
2023-03-29T09:03:01.577Z,0
2023-03-29T09:04:02.061Z,0
2023-03-29T09:05:01.468Z,0
2023-03-29T09:06:01.976Z,0
2023-03-29T09:07:01.475Z,0
2023-03-29T09:08:01.945Z,0
2023-03-29T09:09:01.567Z,0
2023-03-29T09:10:01.435Z,0
2023-03-29T09:11:03.857Z,0
2023-03-29T09:12:01.295Z,0
2023-03-29T09:13:01.827Z,0
2023-03-29T09:14:02.265Z,0
2023-03-29T09:15:03.418Z,0
2023-03-29T09:16:03.978Z,0
2023-03-29T09:17:01.725Z,0
2023-03-29T09:18:02.239Z,0
2023-03-29T09:19:01.729Z,0
2023-03-29T09:20:03.820Z,0
2023-03-29T09:21:01.850Z,0
2023-03-29T09:22:02.121Z,0
2023-03-29T09:23:01.582Z,0
2023-03-29T09:24:03.705Z,0
2023-03-29T09:25:01.550Z,0
2023-03-29T09:26:02.032Z,0
2023-03-29T09:27:01.468Z,0
2023-03-29T09:28:01.990Z,0
2023-03-29T09:29:01.475Z,0
2023-03-29T09:30:01.970Z,0
2023-03-29T09:31:01.622Z,0
2023-03-29T09:32:01.919Z,0
2023-03-29T09:33:03.188Z,0
2023-03-29T09:34:03.471Z,0
2023-03-29T09:35:03.944Z,0
2023-03-29T09:36:03.601Z,0
2023-03-29T09:37:02.264Z,0
2023-03-29T09:38:01.704Z,0
2023-03-29T09:39:02.220Z,0
2023-03-29T09:40:04.540Z,0
2023-03-29T09:41:02.454Z,0
2023-03-29T09:42:03.301Z,0
2023-03-29T09:43:02.117Z,0
2023-03-29T09:44:01.577Z,0
2023-03-29T09:45:03.708Z,0
2023-03-29T09:46:01.638Z,0
2023-03-29T09:47:02.048Z,0
2023-03-29T09:48:01.491Z,0
2023-03-29T09:49:01.974Z,0
2023-03-29T09:50:01.514Z,0
2023-03-29T09:51:03.856Z,0
2023-03-29T09:52:01.396Z,0
2023-03-29T09:53:03.576Z,0
2023-03-29T09:54:01.316Z,0
2023-03-29T09:55:01.873Z,0
2023-03-29T09:56:02.304Z,0
2023-03-29T09:57:03.450Z,0
2023-03-29T09:58:02.290Z,0
2023-03-29T09:59:01.762Z,0
2023-03-29T10:00:03.888Z,0
2023-03-29T10:01:02.153Z,0
2023-03-29T10:02:02.197Z,0
2023-03-29T10:03:01.732Z,0
2023-03-29T10:04:02.181Z,0
2023-03-29T10:05:03.234Z,0
2023-03-29T10:06:02.035Z,0
2023-03-29T10:07:01.562Z,0
2023-03-29T10:08:02.066Z,0
2023-03-29T10:09:01.501Z,0
2023-03-29T10:10:01.990Z,0
2023-03-29T10:11:03.535Z,0
2023-03-29T10:12:01.955Z,0
2023-03-29T10:13:01.386Z,0
2023-03-29T10:14:01.873Z,0
2023-03-29T10:15:01.460Z,2.48
2023-03-29T10:16:01.959Z,4
2023-03-29T10:17:01.399Z,4.08
2023-03-29T10:18:02.982Z,4.48
2023-03-29T10:19:01.633Z,2.48
2023-03-29T10:20:03.980Z,5.12
2023-03-29T10:21:01.931Z,2.72
2023-03-29T10:22:02.035Z,2.24
2023-03-29T10:23:03.158Z,1.36
2023-03-29T10:24:02.078Z,2.16
2023-03-29T10:25:01.502Z,4.24
2023-03-29T10:26:01.970Z,4.8
2023-03-29T10:27:01.398Z,3.36
2023-03-29T10:28:01.865Z,3.36
2023-03-29T10:29:01.392Z,1.36
2023-03-29T10:30:03.566Z,3.92
2023-03-29T10:31:01.615Z,4.08
2023-03-29T10:32:01.866Z,2.08
2023-03-29T10:33:03.969Z,2.32
2023-03-29T10:34:01.789Z,3.6
2023-03-29T10:35:02.278Z,3.44
2023-03-29T10:36:03.450Z,3.52
2023-03-29T10:37:02.197Z,1.52
2023-03-29T10:38:01.705Z,3.04
2023-03-29T10:39:05.763Z,1.52
2023-03-29T10:40:01.624Z,2.96
2023-03-29T10:41:02.293Z,3.76
2023-03-29T10:42:01.657Z,3.68
2023-03-29T10:43:02.100Z,5.68
2023-03-29T10:44:01.556Z,1.6
2023-03-29T10:45:02.038Z,3.44
2023-03-29T10:46:01.553Z,4.72
2023-03-29T10:47:03.731Z,2
2023-03-29T10:48:03.187Z,5.52
2023-03-29T10:49:01.951Z,4.56
2023-03-29T10:50:01.493Z,4.88
2023-03-29T10:51:02.258Z,3.04
2023-03-29T10:52:03.083Z,2.56
2023-03-29T10:53:01.906Z,3.04
2023-03-29T10:54:01.428Z,2.48
2023-03-29T10:55:03.560Z,2.16
2023-03-29T10:56:01.363Z,3.92
2023-03-29T10:57:01.888Z,1.52
2023-03-29T10:58:03.963Z,3.68
2023-03-29T10:59:01.825Z,4.32
2023-03-29T11:00:02.308Z,5.36
2023-03-29T11:01:02.073Z,4.96
2023-03-29T11:02:03.292Z,4.24
2023-03-29T11:03:02.182Z,4
2023-03-29T11:04:01.684Z,1.6
2023-03-29T11:05:02.120Z,3.92
2023-03-29T11:06:01.620Z,1.84
2023-03-29T11:07:02.309Z,3.12
2023-03-29T11:08:03.479Z,1.84
2023-03-29T11:09:03.073Z,4.08
2023-03-29T11:10:01.883Z,1.84
2023-03-29T11:11:01.537Z,1.2
2023-03-29T11:12:15.095Z,0
2023-03-29T11:13:03.166Z,0
2023-03-29T11:14:02.130Z,1.28
2023-03-29T11:15:01.877Z,1.68
2023-03-29T11:16:03.925Z,0
2023-03-29T11:17:01.790Z,0
2023-03-29T11:18:01.423Z,0
2023-03-29T11:19:01.864Z,0
2023-03-29T11:20:04.439Z,0
2023-03-29T11:21:02.307Z,0
2023-03-29T11:22:01.800Z,0
2023-03-29T11:23:02.265Z,0
2023-03-29T11:24:01.816Z,0
2023-03-29T11:25:01.415Z,0
2023-03-29T11:26:03.865Z,0
2023-03-29T11:27:02.291Z,0
2023-03-29T11:28:01.742Z,0
2023-03-29T11:29:02.281Z,0
2023-03-29T11:30:01.736Z,0
2023-03-29T11:31:04.031Z,0
2023-03-29T11:32:01.691Z,2.48
2023-03-29T11:33:02.145Z,0.4
2023-03-29T11:34:01.619Z,4
2023-03-29T11:35:02.135Z,3.68
2023-03-29T11:36:01.667Z,6.88
2023-03-29T11:37:02.127Z,5.44
2023-03-29T11:38:01.627Z,4.16
2023-03-29T11:39:02.134Z,4.08
2023-03-29T11:40:01.538Z,2.48
2023-03-29T11:41:02.271Z,3.28
2023-03-29T11:42:01.541Z,7.04
2023-03-29T11:43:02.028Z,3.44
2023-03-29T11:44:03.154Z,2.72
2023-03-29T11:45:01.938Z,3.2
2023-03-29T11:46:01.487Z,4.24
2023-03-29T11:47:03.750Z,2.08
2023-03-29T11:48:01.421Z,2.4
2023-03-29T11:49:01.869Z,4.64
2023-03-29T11:50:01.417Z,4.56
2023-03-29T11:51:02.122Z,2.96
2023-03-29T11:52:01.297Z,1.76
2023-03-29T11:53:03.480Z,3.44
2023-03-29T11:55:01.769Z,2.8
2023-03-29T11:56:03.945Z,3.52
2023-03-29T11:57:01.823Z,5.44
2023-03-29T11:58:02.302Z,3.84
2023-03-29T11:59:01.719Z,4.4
2023-03-29T12:00:02.188Z,5.28
2023-03-29T12:01:01.879Z,3.68
2023-03-29T12:02:02.229Z,5.84
2023-03-29T12:03:03.447Z,4.4
2023-03-29T12:04:02.248Z,4.72
2023-03-29T12:05:01.681Z,4.88
2023-03-29T12:06:02.098Z,2.24
2023-03-29T12:07:01.577Z,2.24
2023-03-29T12:08:02.101Z,3.12
2023-03-29T12:09:01.555Z,4.4
2023-03-29T12:10:02.053Z,5.76
2023-03-29T12:11:01.693Z,4.16
2023-03-29T12:12:02.026Z,5.04
2023-03-29T12:13:01.468Z,4.48
2023-03-29T12:14:02.028Z,5.28
2023-03-29T12:15:01.462Z,5.28
2023-03-29T12:16:03.682Z,6.72
2023-03-29T12:17:01.508Z,6.88
2023-03-29T12:18:02.021Z,5.6
2023-03-29T12:19:01.395Z,4.88
2023-03-29T12:20:03.563Z,3.36
2023-03-29T12:21:01.389Z,5.68
2023-03-29T12:22:03.543Z,4.88
2023-03-29T12:23:01.401Z,2.8
2023-03-29T12:24:01.858Z,7.44
2023-03-29T12:25:01.300Z,6
2023-03-29T12:26:01.804Z,5.12
2023-03-29T12:27:03.946Z,3.44
2023-03-29T12:28:03.473Z,1.28
2023-03-29T12:29:03.939Z,4.08
2023-03-29T12:30:01.792Z,4.48
2023-03-29T12:31:02.612Z,4.96
2023-03-29T12:32:01.764Z,3.52
2023-03-29T12:33:02.359Z,2.08
2023-03-29T12:34:02.038Z,2.08
2023-03-29T12:35:01.967Z,4.08
2023-03-29T12:36:03.293Z,2
2023-03-29T12:38:01.793Z,2.48
2023-03-29T12:39:02.298Z,2.56
2023-03-29T12:40:03.501Z,5.36
2023-03-29T12:41:02.424Z,4.64
2023-03-29T12:42:01.727Z,2.96
2023-03-29T12:43:03.885Z,2.64
2023-03-29T12:44:03.316Z,3.44
2023-03-29T12:45:02.132Z,3.52
2023-03-29T12:46:02.017Z,5.12
2023-03-29T12:47:03.806Z,3.28
2023-03-29T12:48:01.592Z,2.08
2023-03-29T12:49:02.038Z,2.32
2023-03-29T12:50:01.672Z,2.88
2023-03-29T12:51:03.757Z,4.08
2023-03-29T12:52:01.471Z,3.04
2023-03-29T12:53:01.972Z,2.48
2023-03-29T12:54:03.161Z,1.6
2023-03-29T12:55:03.641Z,2.32
2023-03-29T12:56:01.850Z,3.6
2023-03-29T12:57:03.618Z,3.84
2023-03-29T12:58:01.332Z,2.88
2023-03-29T12:59:01.808Z,6
2023-03-29T13:00:02.305Z,4
2023-03-29T13:01:04.302Z,4.8
2023-03-29T13:02:02.348Z,1.52
2023-03-29T13:03:01.777Z,5.84
2023-03-29T13:04:02.270Z,5.44
2023-03-29T13:05:01.767Z,5.68
2023-03-29T13:06:04.124Z,4.16
2023-03-29T13:07:01.863Z,3.52
2023-03-29T13:08:02.199Z,4.4
2023-03-29T13:09:01.716Z,3.36
2023-03-29T13:10:02.193Z,5.12
2023-03-29T13:11:01.712Z,3.92
2023-03-29T13:12:02.218Z,4.8
2023-03-29T13:13:03.384Z,2.48
2023-03-29T13:14:02.190Z,4.32
2023-03-29T13:15:01.718Z,3.84
2023-03-29T13:16:02.597Z,4.08
2023-03-29T13:17:15.521Z,2.16
2023-03-29T13:18:02.181Z,3.2
2023-03-29T13:19:01.627Z,3.84
2023-03-29T13:20:02.122Z,4.4
2023-03-29T13:21:01.661Z,6.16
2023-03-29T13:22:02.108Z,5.2
2023-03-29T13:23:01.555Z,3.68
2023-03-29T13:24:03.794Z,3.84
2023-03-29T13:25:03.284Z,5.04
2023-03-29T13:26:02.239Z,5.6
2023-03-29T13:27:01.561Z,4.8
2023-03-29T13:28:03.764Z,6.24
2023-03-29T13:29:01.573Z,4.96
2023-03-29T13:30:02.139Z,5.04
2023-03-29T13:31:01.674Z,2.72
2023-03-29T13:32:02.119Z,5.12
2023-03-29T13:33:01.675Z,4.64
2023-03-29T13:34:02.209Z,2.96
2023-03-29T13:35:01.650Z,2.96
2023-03-29T13:36:02.447Z,5.12
2023-03-29T13:37:01.634Z,2.64
2023-03-29T13:38:02.226Z,5.92
2023-03-29T13:39:01.711Z,4.16
2023-03-29T13:40:02.191Z,3.84
2023-03-29T13:41:01.747Z,2
2023-03-29T13:42:02.272Z,1.76
2023-03-29T13:43:01.979Z,2.4
2023-03-29T13:44:01.574Z,3.92
2023-03-29T13:45:03.743Z,2.32
2023-03-29T13:46:02.403Z,3.68
2023-03-29T13:47:01.955Z,5.2
2023-03-29T13:48:05.602Z,3.12
2023-03-29T13:49:01.776Z,4.56
2023-03-29T13:50:02.289Z,3.92
2023-03-29T13:51:01.712Z,3.12
2023-03-29T13:52:02.207Z,3.44
2023-03-29T13:53:01.724Z,2.96
2023-03-29T13:54:02.196Z,3.12
2023-03-29T13:55:01.680Z,4.08
2023-03-29T13:56:02.320Z,1.28
2023-03-29T13:57:01.669Z,1.12
2023-03-29T13:58:02.115Z,3.36
2023-03-29T13:59:03.497Z,3.44
2023-03-29T14:00:02.039Z,2
2023-03-29T14:01:03.301Z,2.96
2023-03-29T14:02:02.129Z,3.2
2023-03-29T14:03:01.656Z,2.96
2023-03-29T14:04:02.047Z,1.52
2023-03-29T14:05:01.477Z,2.24
2023-03-29T14:06:02.358Z,0.48
2023-03-29T14:07:01.484Z,1.2
2023-03-29T14:08:01.952Z,1.12
2023-03-29T14:09:01.396Z,3.6
2023-03-29T14:10:01.890Z,3.36
2023-03-29T14:11:03.079Z,3.36
2023-03-29T14:12:01.897Z,0.96
2023-03-29T14:13:03.070Z,1.84
2023-03-29T14:14:01.875Z,1.04
2023-03-29T14:15:01.316Z,2.32
2023-03-29T14:16:02.107Z,4.56
2023-03-29T14:17:02.398Z,5.84
2023-03-29T14:18:03.562Z,5.04
2023-03-29T14:19:02.279Z,4.4
2023-03-29T14:20:01.817Z,2.88
2023-03-29T14:21:02.278Z,3.12
2023-03-29T14:22:01.798Z,3.68
2023-03-29T14:23:02.268Z,2.64
2023-03-29T14:24:01.735Z,2.56
2023-03-29T14:25:02.295Z,2.96
2023-03-29T14:26:01.913Z,5.04
2023-03-29T14:27:02.198Z,10.24